createdAt,value
2022-09-20T00:00:44.857Z,13.15
2022-09-20T00:01:47.314Z,10.50
2022-09-20T00:02:49.670Z,14.98
2022-09-20T00:03:54.053Z,11.07
2022-09-20T00:04:56.264Z,12.48
2022-09-20T00:06:01.997Z,8.52
2022-09-20T00:07:04.432Z,10.00
2022-09-20T00:08:10.337Z,11.20
2022-09-20T00:09:12.634Z,8.50
2022-09-20T00:10:14.865Z,8.43
2022-09-20T00:11:20.519Z,12.25
2022-09-20T00:12:22.701Z,11.77
2022-09-20T00:13:24.861Z,12.60
2022-09-20T00:14:27.570Z,10.60
2022-09-20T00:15:30.358Z,10.27
2022-09-20T00:16:36.070Z,11.32
2022-09-20T00:17:38.370Z,9.13
2022-09-20T00:18:41.512Z,10.45
2022-09-20T00:19:43.666Z,9.57
2022-09-20T00:20:47.236Z,9.90
2022-09-20T00:21:49.455Z,10.80
2022-09-20T00:22:51.979Z,10.50
2022-09-20T00:23:54.748Z,11.82
2022-09-20T00:24:56.968Z,9.82
2022-09-20T00:26:03.808Z,10.55
2022-09-20T00:27:06.113Z,12.05
2022-09-20T00:28:09.428Z,11.88
2022-09-20T00:29:12.656Z,11.45
2022-09-20T00:30:14.994Z,9.38
2022-09-20T00:31:17.407Z,11.70
2022-09-20T00:32:19.967Z,9.38
2022-09-20T00:33:24.137Z,9.50
2022-09-20T00:34:44.738Z,10.13
2022-09-20T00:35:47.171Z,9.93
2022-09-20T00:36:49.370Z,8.82
2022-09-20T00:37:51.604Z,12.07
2022-09-20T00:38:58.409Z,11.48
2022-09-20T00:40:01.619Z,11.43
2022-09-20T00:41:04.038Z,10.70
2022-09-20T00:42:06.545Z,14.25
2022-09-20T00:43:15.899Z,14.13
2022-09-20T00:44:43.024Z,11.35
2022-09-20T00:45:49.424Z,14.50
2022-09-20T00:46:52.061Z,10.10
2022-09-20T00:48:02.935Z,12.07
2022-09-20T00:49:16.734Z,8.38
2022-09-20T00:50:44.566Z,8.32
2022-09-20T00:51:52.211Z,10.85
2022-09-20T00:53:02.816Z,9.25
2022-09-20T00:54:08.470Z,10.23
2022-09-20T00:55:11.336Z,13.00
2022-09-20T00:56:20.210Z,8.35
2022-09-20T00:57:23.808Z,9.18
2022-09-20T00:58:28.918Z,6.25
2022-09-20T00:59:38.644Z,13.65
2022-09-20T01:00:42.835Z,7.47
2022-09-20T01:01:48.865Z,9.23
2022-09-20T01:02:57.029Z,7.70
2022-09-20T01:04:00.932Z,11.88
2022-09-20T01:05:04.166Z,7.07
2022-09-20T01:06:10.067Z,11.38
2022-09-20T01:07:15.986Z,5.97
2022-09-20T01:08:18.716Z,9.00
2022-09-20T01:09:20.989Z,7.32
2022-09-20T01:10:23.212Z,9.00
2022-09-20T01:11:26.452Z,7.53
2022-09-20T01:12:32.214Z,8.23
2022-09-20T01:13:34.357Z,7.63
2022-09-20T01:14:36.673Z,8.43
2022-09-20T01:15:40.503Z,11.80
2022-09-20T01:16:42.845Z,9.05
2022-09-20T01:17:52.293Z,7.43
2022-09-20T01:18:59.973Z,6.13
2022-09-20T01:20:10.426Z,7.97
2022-09-20T01:21:13.983Z,7.60
2022-09-20T01:22:44.233Z,11.70
2022-09-20T01:23:57.730Z,6.00
2022-09-20T01:25:11.605Z,8.45
2022-09-20T01:26:44.813Z,6.85
2022-09-20T01:27:49.900Z,7.05
2022-09-20T01:29:03.096Z,12.90
2022-09-20T01:30:11.325Z,10.70
2022-09-20T01:31:26.561Z,9.10
2022-09-20T01:32:53.855Z,14.15
2022-09-20T01:34:06.841Z,7.88
2022-09-20T01:35:11.466Z,11.80
2022-09-20T01:36:37.768Z,7.35
2022-09-20T01:37:50.156Z,5.72
2022-09-20T01:39:10.929Z,7.07
2022-09-20T01:40:22.218Z,9.35
2022-09-20T01:41:33.684Z,8.40
2022-09-20T01:42:48.049Z,12.27
2022-09-20T01:44:04.847Z,8.52
2022-09-20T01:45:13.014Z,7.65
2022-09-20T01:46:32.917Z,5.95
2022-09-20T01:47:40.812Z,8.63
2022-09-20T01:48:42.949Z,7.57
2022-09-20T01:49:50.932Z,10.05
2022-09-20T01:51:24.530Z,7.75
2022-09-20T01:52:40.966Z,7.28
2022-09-20T01:54:26.180Z,9.93
2022-09-20T01:55:50.281Z,8.57
2022-09-20T01:57:10.983Z,7.00
2022-09-20T01:58:41.007Z,6.40
2022-09-20T02:00:08.025Z,6.88
2022-09-20T02:01:34.934Z,11.48
2022-09-20T02:02:59.835Z,8.20
2022-09-20T02:04:37.744Z,5.82
2022-09-20T02:05:39.928Z,7.85
2022-09-20T02:07:04.971Z,9.80
2022-09-20T02:08:39.008Z,7.22
2022-09-20T02:10:12.596Z,7.70
2022-09-20T02:12:33.240Z,8.10
2022-09-20T02:13:54.186Z,7.93
2022-09-20T02:15:42.656Z,7.32
2022-09-20T02:16:58.032Z,7.80
2022-09-20T02:18:28.286Z,12.48
2022-09-20T02:19:33.035Z,11.80
2022-09-20T02:20:44.155Z,7.47
2022-09-20T02:22:29.901Z,6.88
2022-09-20T02:24:03.300Z,8.80
2022-09-20T02:26:57.153Z,8.07
2022-09-20T02:28:39.614Z,11.77
2022-09-20T02:29:47.741Z,25.25
2022-09-20T02:31:17.109Z,12.55
2022-09-20T02:32:24.112Z,7.53
2022-09-20T02:33:56.678Z,15.18
2022-09-20T02:35:07.033Z,6.20
2022-09-20T02:36:47.113Z,8.40
2022-09-20T02:38:02.338Z,9.70
2022-09-20T02:39:13.550Z,11.25
2022-09-20T02:40:15.759Z,9.50
2022-09-20T02:41:43.976Z,8.32
2022-09-20T02:43:03.689Z,8.02
2022-09-20T02:44:34.885Z,9.63
2022-09-20T02:46:06.436Z,8.15
2022-09-20T02:47:37.116Z,10.80
2022-09-20T02:49:02.533Z,10.43
2022-09-20T02:50:46.661Z,11.63
2022-09-20T02:52:04.689Z,7.72
2022-09-20T02:53:25.414Z,6.15
2022-09-20T02:54:50.914Z,8.75
2022-09-20T02:56:14.053Z,11.13
2022-09-20T02:57:31.194Z,7.40
2022-09-20T02:58:51.677Z,11.48
2022-09-20T03:00:05.456Z,7.65
2022-09-20T03:01:30.944Z,8.15
2022-09-20T03:03:02.013Z,8.40
2022-09-20T03:04:39.598Z,9.18
2022-09-20T03:06:05.900Z,10.80
2022-09-20T03:07:34.649Z,9.25
2022-09-20T03:08:53.119Z,9.07
2022-09-20T03:10:13.826Z,12.05
2022-09-20T03:11:27.137Z,11.63
2022-09-20T03:12:39.954Z,6.50
2022-09-20T03:14:03.853Z,9.32
2022-09-20T03:15:35.308Z,7.00
2022-09-20T03:17:14.799Z,7.88
2022-09-20T03:18:26.964Z,10.98
2022-09-20T03:19:39.811Z,8.77
2022-09-20T03:21:15.282Z,13.18
2022-09-20T03:22:26.749Z,9.35
2022-09-20T03:23:44.093Z,7.03
2022-09-20T03:25:02.925Z,12.43
2022-09-20T03:26:35.026Z,8.27
2022-09-20T03:27:49.691Z,7.28
2022-09-20T03:29:25.684Z,10.25
2022-09-20T03:30:51.749Z,8.43
2022-09-20T03:32:34.133Z,10.57
2022-09-20T03:34:11.774Z,7.82
2022-09-20T03:35:35.333Z,6.03
2022-09-20T03:36:40.273Z,9.52
2022-09-20T03:38:18.761Z,8.98
2022-09-20T03:40:02.045Z,8.23
2022-09-20T03:41:36.193Z,6.40
2022-09-20T03:42:48.601Z,11.30
2022-09-20T03:45:14.770Z,7.97
2022-09-20T03:46:26.497Z,5.88
2022-09-20T03:47:51.306Z,9.65
2022-09-20T03:49:19.266Z,11.93
2022-09-20T03:51:07.105Z,8.30
2022-09-20T03:52:40.122Z,10.65
2022-09-20T03:54:19.491Z,12.25
2022-09-20T03:55:31.861Z,9.30
2022-09-20T03:56:41.224Z,9.52
2022-09-20T03:57:49.335Z,12.35
2022-09-20T03:59:21.724Z,11.02
2022-09-20T04:00:28.444Z,7.50
2022-09-20T04:01:49.158Z,9.43
2022-09-20T04:03:18.956Z,8.27
2022-09-20T04:04:39.885Z,8.68
2022-09-20T04:05:56.356Z,10.52
2022-09-20T04:07:19.227Z,9.13
2022-09-20T04:08:53.639Z,12.52
2022-09-20T04:10:17.193Z,7.57
2022-09-20T04:11:40.850Z,7.32
2022-09-20T04:12:55.300Z,10.32
2022-09-20T04:14:14.524Z,9.63
2022-09-20T04:15:41.644Z,11.13
2022-09-20T04:16:55.702Z,9.18
2022-09-20T04:18:10.162Z,12.88
2022-09-20T04:19:21.642Z,9.27
2022-09-20T04:20:52.414Z,7.50
2022-09-20T04:21:59.545Z,8.93
2022-09-20T04:23:25.694Z,8.73
2022-09-20T04:24:39.662Z,9.38
2022-09-20T04:25:46.569Z,10.98
2022-09-20T04:26:56.824Z,9.65
2022-09-20T04:28:06.881Z,6.30
2022-09-20T04:29:40.115Z,10.48
2022-09-20T04:30:44.029Z,9.98
2022-09-20T04:31:57.031Z,8.63
2022-09-20T04:33:11.757Z,9.70
2022-09-20T04:34:22.789Z,8.55
2022-09-20T04:36:11.325Z,9.02
2022-09-20T04:37:26.546Z,14.00
2022-09-20T04:38:29.896Z,8.60
2022-09-20T04:39:49.228Z,13.15
2022-09-20T04:41:32.530Z,10.82
2022-09-20T04:43:05.219Z,11.18
2022-09-20T04:44:27.636Z,12.27
2022-09-20T04:45:42.120Z,11.55
2022-09-20T04:46:57.285Z,11.10
2022-09-20T04:48:56.852Z,15.63
2022-09-20T04:50:36.405Z,6.97
2022-09-20T04:52:19.149Z,10.57
2022-09-20T04:53:55.501Z,11.98
2022-09-20T04:55:24.780Z,8.48
2022-09-20T04:56:52.176Z,7.40
2022-09-20T04:58:16.889Z,9.20
2022-09-20T05:00:00.964Z,10.15
2022-09-20T05:01:16.720Z,10.10
2022-09-20T05:02:34.257Z,6.75
2022-09-20T05:04:14.090Z,13.05
2022-09-20T05:05:35.694Z,9.25
2022-09-20T05:06:58.987Z,9.57
2022-09-20T05:08:30.441Z,10.13
2022-09-20T05:09:53.114Z,7.75
2022-09-20T05:11:17.189Z,10.55
2022-09-20T05:12:28.055Z,11.98
2022-09-20T05:13:33.299Z,13.02
2022-09-20T05:15:04.887Z,8.27
2022-09-20T05:16:32.420Z,5.38
2022-09-20T05:17:37.236Z,8.77
2022-09-20T05:19:02.804Z,11.45
2022-09-20T05:20:30.083Z,10.98
2022-09-20T05:22:06.573Z,13.20
2022-09-20T05:23:34.549Z,12.20
2022-09-20T05:24:49.509Z,13.13
2022-09-20T05:25:54.754Z,11.13
2022-09-20T05:27:25.051Z,11.10
2022-09-20T05:29:11.570Z,9.30
2022-09-20T05:30:24.058Z,7.75
2022-09-20T05:32:52.585Z,7.18
2022-09-20T05:34:20.416Z,15.60
2022-09-20T05:35:48.969Z,13.95
2022-09-20T05:37:28.493Z,9.13
2022-09-20T05:38:40.709Z,10.88
2022-09-20T05:40:06.256Z,10.98
2022-09-20T05:41:18.873Z,8.70
2022-09-20T05:42:42.826Z,7.50
2022-09-20T05:43:57.841Z,9.43
2022-09-20T05:45:37.318Z,6.93
2022-09-20T05:46:57.491Z,12.57
2022-09-20T05:48:12.239Z,13.40
2022-09-20T05:49:55.394Z,9.80
2022-09-20T05:51:20.215Z,14.93
2022-09-20T05:52:36.815Z,19.35
2022-09-20T05:53:56.212Z,16.52
2022-09-20T05:55:37.027Z,20.55
2022-09-20T05:57:04.283Z,20.10
2022-09-20T05:58:37.269Z,12.23
2022-09-20T05:59:49.129Z,11.05
2022-09-20T06:01:01.266Z,54.45
2022-09-20T06:02:22.649Z,52.95
2022-09-20T06:03:32.293Z,66.78
2022-09-20T06:04:52.471Z,53.05
2022-09-20T06:06:21.238Z,32.70
2022-09-20T06:07:23.400Z,17.85
2022-09-20T06:08:43.454Z,10.60
2022-09-20T06:10:31.404Z,8.27
2022-09-20T06:11:33.530Z,14.60
2022-09-20T06:13:00.509Z,12.02
2022-09-20T06:14:25.240Z,11.75
2022-09-20T06:15:44.729Z,12.45
2022-09-20T06:16:58.605Z,13.15
2022-09-20T06:18:23.339Z,13.05
2022-09-20T06:20:06.900Z,10.70
2022-09-20T06:21:41.880Z,12.25
2022-09-20T06:22:48.986Z,9.20
2022-09-20T06:23:57.152Z,10.25
2022-09-20T06:25:18.504Z,10.48
2022-09-20T06:26:26.280Z,10.18
2022-09-20T06:27:43.097Z,12.30
2022-09-20T06:28:58.238Z,8.55
2022-09-20T06:30:05.793Z,9.65
2022-09-20T06:31:10.061Z,9.23
2022-09-20T06:32:16.831Z,9.75
2022-09-20T06:33:22.476Z,8.20
2022-09-20T06:34:26.843Z,7.35
2022-09-20T06:35:37.451Z,15.18
2022-09-20T06:37:06.647Z,11.10
2022-09-20T06:38:40.419Z,8.88
2022-09-20T06:40:21.549Z,6.90
2022-09-20T06:41:31.000Z,9.48
2022-09-20T06:42:34.700Z,8.50
2022-09-20T06:43:38.716Z,10.02
2022-09-20T06:44:44.094Z,12.05
2022-09-20T06:45:47.136Z,9.40
2022-09-20T06:46:49.472Z,8.57
2022-09-20T06:47:51.727Z,11.13
2022-09-20T06:48:55.148Z,10.13
2022-09-20T06:49:59.006Z,10.63
2022-09-20T06:51:01.546Z,11.63
2022-09-20T06:52:07.857Z,10.05
2022-09-20T06:53:16.824Z,9.27
2022-09-20T06:54:21.681Z,10.00
2022-09-20T06:55:30.164Z,13.65
2022-09-20T06:56:36.788Z,11.63
2022-09-20T06:57:39.185Z,11.43
2022-09-20T06:58:41.422Z,18.60
2022-09-20T06:59:44.142Z,12.93
2022-09-20T07:00:46.637Z,10.65
2022-09-20T07:01:49.255Z,13.88
2022-09-20T07:02:52.043Z,10.82
2022-09-20T07:03:55.018Z,13.38
2022-09-20T07:04:57.985Z,22.38
2022-09-20T07:06:00.519Z,12.50
2022-09-20T07:07:09.316Z,9.85
2022-09-20T07:08:12.601Z,10.82
2022-09-20T07:09:14.813Z,13.18
2022-09-20T07:10:17.119Z,11.73
2022-09-20T07:11:19.453Z,8.75
2022-09-20T07:12:21.703Z,8.93
2022-09-20T07:13:24.036Z,10.10
2022-09-20T07:14:26.853Z,9.38
2022-09-20T07:15:31.872Z,10.63
2022-09-20T07:16:36.255Z,15.05
2022-09-20T07:17:38.605Z,14.82
2022-09-20T07:18:41.703Z,9.85
2022-09-20T07:19:44.067Z,12.70
2022-09-20T07:20:46.490Z,10.25
2022-09-20T07:21:49.335Z,11.45
2022-09-20T07:22:53.612Z,16.67
2022-09-20T07:23:57.482Z,11.80
2022-09-20T07:25:02.352Z,12.15
2022-09-20T07:26:05.006Z,8.55
2022-09-20T07:27:07.339Z,8.82
2022-09-20T07:28:09.707Z,12.38
2022-09-20T07:29:12.058Z,10.65
2022-09-20T07:30:14.994Z,8.80
2022-09-20T07:31:21.696Z,9.98
2022-09-20T07:32:24.065Z,9.82
2022-09-20T07:33:26.646Z,16.40
2022-09-20T07:34:29.476Z,9.85
2022-09-20T07:35:31.794Z,8.35
2022-09-20T07:36:34.362Z,11.32
2022-09-20T07:37:37.990Z,11.10
2022-09-20T07:38:42.177Z,11.48
2022-09-20T07:39:45.674Z,12.35
2022-09-20T07:40:59.780Z,14.55
2022-09-20T07:42:06.093Z,13.38
2022-09-20T07:43:08.801Z,7.72
2022-09-20T07:44:25.819Z,7.55
2022-09-20T07:45:28.317Z,11.85
2022-09-20T07:46:33.886Z,12.02
2022-09-20T07:47:36.039Z,9.02
2022-09-20T07:48:38.279Z,10.30
2022-09-20T07:49:40.659Z,9.15
2022-09-20T07:50:50.888Z,9.73
2022-09-20T07:51:53.884Z,10.63
2022-09-20T07:52:57.425Z,10.63
2022-09-20T07:53:59.640Z,10.57
2022-09-20T07:55:01.862Z,12.07
2022-09-20T07:56:11.174Z,9.52
2022-09-20T07:57:13.444Z,8.02
2022-09-20T07:58:15.618Z,13.30
2022-09-20T07:59:17.856Z,7.20
2022-09-20T08:00:20.184Z,14.75
2022-09-20T08:01:22.688Z,10.93
2022-09-20T08:02:25.100Z,5.97
2022-09-20T08:03:30.454Z,5.65
2022-09-20T08:04:32.677Z,11.73
2022-09-20T08:05:35.697Z,8.07
2022-09-20T08:06:43.252Z,12.98
2022-09-20T08:07:45.484Z,6.22
2022-09-20T08:08:48.002Z,7.65
2022-09-20T08:09:50.687Z,11.23
2022-09-20T08:10:55.069Z,14.73
2022-09-20T08:11:57.687Z,9.68
2022-09-20T08:14:24.373Z,14.82
2022-09-20T08:15:26.588Z,10.82
2022-09-20T08:16:30.261Z,13.30
2022-09-20T08:17:32.665Z,7.53
2022-09-20T08:18:35.288Z,9.88
2022-09-20T08:19:40.047Z,10.40
2022-09-20T08:20:42.248Z,10.63
2022-09-20T08:21:45.060Z,10.10
2022-09-20T08:23:00.932Z,10.32
2022-09-20T08:24:09.557Z,13.57
2022-09-20T08:25:11.840Z,16.88
2022-09-20T08:26:20.224Z,11.75
2022-09-20T08:27:22.615Z,10.68
2022-09-20T08:28:24.828Z,8.60
2022-09-20T08:29:26.980Z,13.43
2022-09-20T08:30:30.047Z,12.35
2022-09-20T08:31:36.729Z,10.73
2022-09-20T08:32:41.077Z,11.75
2022-09-20T08:33:43.411Z,12.27
2022-09-20T08:34:49.401Z,12.48
2022-09-20T08:35:57.557Z,9.10
2022-09-20T08:37:00.221Z,11.82
2022-09-20T08:40:49.324Z,12.07
2022-09-20T08:42:01.013Z,10.55
2022-09-20T08:43:05.478Z,10.10
2022-09-20T08:44:35.253Z,11.65
2022-09-20T08:45:39.608Z,12.68
2022-09-20T08:46:46.668Z,13.68
2022-09-20T08:47:57.886Z,17.08
2022-09-20T08:49:04.724Z,11.63
2022-09-20T08:50:11.738Z,13.68
2022-09-20T08:51:22.653Z,10.73
2022-09-20T08:52:36.961Z,11.63
2022-09-20T08:53:49.224Z,11.10
2022-09-20T08:54:51.595Z,13.43
2022-09-20T08:55:53.767Z,13.85
2022-09-20T08:56:56.063Z,12.98
2022-09-20T08:57:59.501Z,10.20
2022-09-20T08:59:02.303Z,12.98
2022-09-20T09:00:18.000Z,14.50
2022-09-20T09:01:26.223Z,15.13
2022-09-20T09:02:31.583Z,11.25
2022-09-20T09:03:34.260Z,13.55
2022-09-20T09:04:36.772Z,8.98
2022-09-20T09:05:50.554Z,11.73
2022-09-20T09:06:52.855Z,12.15
2022-09-20T09:07:55.093Z,11.23
2022-09-20T09:08:59.826Z,7.82
2022-09-20T09:10:03.237Z,10.55
2022-09-20T09:11:10.993Z,9.30
2022-09-20T09:12:24.548Z,12.98
2022-09-20T09:13:40.629Z,10.48
2022-09-20T09:14:49.163Z,9.02
2022-09-20T09:15:57.202Z,10.02
2022-09-20T09:17:00.792Z,11.27
2022-09-20T09:18:05.737Z,10.23
2022-09-20T09:19:33.155Z,10.60
2022-09-20T09:20:47.435Z,14.40
2022-09-20T09:21:50.248Z,8.55
2022-09-20T09:23:06.783Z,11.45
2022-09-20T09:24:16.682Z,8.57
2022-09-20T09:25:25.135Z,10.23
2022-09-20T09:26:27.582Z,12.07
2022-09-20T09:27:29.833Z,8.15
2022-09-20T09:28:36.807Z,9.25
2022-09-20T09:29:55.697Z,7.35
2022-09-20T09:31:13.929Z,7.07
2022-09-20T09:32:28.377Z,10.02
2022-09-20T09:33:34.448Z,11.60
2022-09-20T09:34:39.157Z,11.00
2022-09-20T09:35:41.990Z,9.02
2022-09-20T09:36:44.478Z,13.75
2022-09-20T09:38:03.310Z,8.20
2022-09-20T09:39:27.851Z,9.23
2022-09-20T09:40:32.414Z,10.43
2022-09-20T09:41:36.890Z,10.27
2022-09-20T09:42:52.955Z,8.95
2022-09-20T09:44:01.203Z,9.13
2022-09-20T09:45:20.483Z,9.32
2022-09-20T09:46:25.412Z,8.02
2022-09-20T09:47:28.767Z,12.18
2022-09-20T09:48:31.229Z,10.45
2022-09-20T09:49:36.714Z,9.18
2022-09-20T09:50:39.587Z,7.63
2022-09-20T09:52:02.142Z,7.15
2022-09-20T09:53:13.451Z,8.85
2022-09-20T09:54:19.680Z,11.32
2022-09-20T09:55:23.592Z,6.65
2022-09-20T09:56:49.863Z,10.13
2022-09-20T09:58:03.021Z,15.27
2022-09-20T09:59:20.229Z,10.60
2022-09-20T10:00:26.942Z,8.90
2022-09-20T10:01:33.543Z,8.20
2022-09-20T10:03:04.429Z,7.35
2022-09-20T10:04:06.758Z,9.77
2022-09-20T10:05:24.673Z,10.43
2022-09-20T10:06:34.011Z,8.52
2022-09-20T10:07:42.574Z,11.32
2022-09-20T10:09:25.664Z,9.10
2022-09-20T10:10:52.834Z,9.18
2022-09-20T10:12:22.566Z,11.85
2022-09-20T10:13:49.293Z,8.25
2022-09-20T10:15:07.029Z,10.95
2022-09-20T10:16:22.594Z,8.48
2022-09-20T10:17:55.644Z,10.75
2022-09-20T10:19:22.510Z,8.70
2022-09-20T10:20:34.807Z,10.07
2022-09-20T10:21:51.667Z,7.78
2022-09-20T10:24:42.816Z,11.23
2022-09-20T10:26:07.932Z,11.35
2022-09-20T10:27:36.939Z,11.13
2022-09-20T10:29:03.704Z,11.02
2022-09-20T10:30:20.555Z,8.88
2022-09-20T10:32:05.402Z,9.98
2022-09-20T10:33:24.207Z,9.15
2022-09-20T10:35:12.184Z,7.40
2022-09-20T10:36:26.172Z,6.38
2022-09-20T10:37:32.121Z,8.95
2022-09-20T10:38:41.440Z,8.32
2022-09-20T10:39:52.751Z,9.02
2022-09-20T10:41:29.962Z,7.70
2022-09-20T10:42:56.572Z,9.77
2022-09-20T10:44:13.574Z,10.77
2022-09-20T10:45:50.975Z,8.95
2022-09-20T10:47:15.638Z,9.30
2022-09-20T10:48:37.962Z,5.82
2022-09-20T10:50:00.496Z,7.28
2022-09-20T10:51:19.060Z,4.93
2022-09-20T10:52:41.423Z,9.70
2022-09-20T10:54:06.128Z,7.35
2022-09-20T10:55:34.845Z,8.68
2022-09-20T10:56:47.128Z,11.10
2022-09-20T10:58:16.772Z,8.23
2022-09-20T10:59:33.941Z,9.02
2022-09-20T11:00:45.130Z,6.47
2022-09-20T11:02:02.748Z,11.38
2022-09-20T11:03:27.357Z,7.95
2022-09-20T11:04:47.790Z,5.85
2022-09-20T11:06:32.857Z,12.27
2022-09-20T11:07:58.301Z,7.85
2022-09-20T11:09:03.620Z,9.60
2022-09-20T11:10:14.781Z,7.22
2022-09-20T11:11:25.735Z,10.30
2022-09-20T11:12:33.609Z,8.40
2022-09-20T11:14:03.337Z,6.22
2022-09-20T11:15:17.227Z,7.47
2022-09-20T11:16:27.815Z,6.28
2022-09-20T11:17:36.126Z,6.60
2022-09-20T11:18:48.217Z,6.07
2022-09-20T11:20:07.722Z,9.50
2022-09-20T11:21:19.163Z,10.32
2022-09-20T11:22:30.714Z,6.07
2022-09-20T11:23:51.127Z,7.18
2022-09-20T11:25:04.442Z,7.80
2022-09-20T11:26:48.089Z,9.23
2022-09-20T11:28:25.718Z,6.72
2022-09-20T11:29:35.301Z,8.65
2022-09-20T11:30:54.326Z,8.35
2022-09-20T11:33:44.228Z,5.88
2022-09-20T11:34:50.961Z,11.18
2022-09-20T11:35:57.980Z,6.35
2022-09-20T11:37:03.132Z,7.07
2022-09-20T11:38:24.919Z,7.13
2022-09-20T11:39:54.221Z,6.72
2022-09-20T11:41:25.507Z,7.53
2022-09-20T11:42:35.803Z,5.85
2022-09-20T11:43:42.547Z,4.90
2022-09-20T11:44:45.251Z,8.93
2022-09-20T11:45:54.549Z,5.68
2022-09-20T11:47:05.826Z,5.32
2022-09-20T11:48:18.734Z,4.65
2022-09-20T11:49:27.446Z,7.25
2022-09-20T11:50:43.105Z,5.00
2022-09-20T11:52:14.705Z,5.55
2022-09-20T11:53:37.279Z,6.20
2022-09-20T11:55:10.780Z,5.15
2022-09-20T11:56:18.254Z,9.23
2022-09-20T11:57:21.903Z,9.10
2022-09-20T11:58:25.653Z,8.30
2022-09-20T11:59:34.654Z,5.78
2022-09-20T12:00:41.337Z,6.78
2022-09-20T12:01:43.769Z,4.85
2022-09-20T12:02:54.058Z,6.25
2022-09-20T12:04:14.527Z,9.88
2022-09-20T12:05:33.894Z,8.73
2022-09-20T12:06:39.623Z,12.77
2022-09-20T12:07:44.296Z,9.82
2022-09-20T12:08:50.524Z,8.85
2022-09-20T12:10:01.419Z,9.82
2022-09-20T12:11:06.992Z,6.40
2022-09-20T12:12:36.217Z,9.57
2022-09-20T12:13:41.710Z,6.28
2022-09-20T12:14:54.949Z,8.95
2022-09-20T12:16:04.831Z,5.28
2022-09-20T12:17:45.538Z,7.65
2022-09-20T12:19:01.120Z,8.20
2022-09-20T12:20:32.306Z,10.98
2022-09-20T12:21:59.494Z,10.45
2022-09-20T12:23:39.052Z,7.97
2022-09-20T12:24:45.269Z,8.38
2022-09-20T12:26:23.172Z,6.38
2022-09-20T12:27:29.115Z,10.63
2022-09-20T12:28:36.787Z,10.25
2022-09-20T12:29:48.007Z,8.57
2022-09-20T12:31:15.949Z,9.15
2022-09-20T12:32:42.014Z,5.57
2022-09-20T12:34:11.799Z,5.65
2022-09-20T12:35:35.493Z,3.97
2022-09-20T12:36:57.839Z,5.57
2022-09-20T12:38:27.185Z,8.60
2022-09-20T12:39:33.096Z,7.38
2022-09-20T12:40:35.455Z,6.40
2022-09-20T12:41:48.176Z,8.10
2022-09-20T12:42:56.766Z,7.35
2022-09-20T12:44:05.598Z,6.63
2022-09-20T12:45:17.640Z,7.70
2022-09-20T12:46:37.906Z,5.38
2022-09-20T12:47:40.244Z,6.65
2022-09-20T12:48:42.508Z,8.95
2022-09-20T12:50:06.378Z,8.57
2022-09-20T12:51:33.092Z,4.55
2022-09-20T12:52:50.188Z,4.15
2022-09-20T12:54:06.528Z,9.80
2022-09-20T12:55:26.656Z,7.75
2022-09-20T12:56:29.116Z,7.80
2022-09-20T12:57:32.596Z,5.28
2022-09-20T12:58:51.406Z,9.05
2022-09-20T12:59:57.398Z,6.57
2022-09-20T13:01:22.695Z,6.72
2022-09-20T13:03:03.748Z,9.18
2022-09-20T13:04:41.915Z,10.65
2022-09-20T13:05:46.391Z,9.85
2022-09-20T13:06:49.259Z,7.80
2022-09-20T13:08:00.310Z,8.70
2022-09-20T13:09:05.264Z,9.52
2022-09-20T13:10:20.548Z,10.20
2022-09-20T13:11:38.430Z,9.73
2022-09-20T13:12:42.273Z,9.35
2022-09-20T13:13:49.059Z,10.50
2022-09-20T13:14:51.926Z,13.23
2022-09-20T13:15:55.242Z,6.82
2022-09-20T13:17:02.398Z,10.70
2022-09-20T13:18:05.691Z,6.00
2022-09-20T13:19:20.454Z,8.30
2022-09-20T13:20:25.693Z,6.40
2022-09-20T13:21:28.294Z,6.35
2022-09-20T13:22:37.756Z,9.50
2022-09-20T13:23:48.328Z,7.93
2022-09-20T13:24:55.109Z,9.05
2022-09-20T13:25:58.207Z,13.13
2022-09-20T13:27:06.428Z,8.85
2022-09-20T13:28:30.110Z,10.88
2022-09-20T13:29:37.574Z,10.10
2022-09-20T13:30:42.273Z,11.90
2022-09-20T13:31:44.522Z,8.52
2022-09-20T13:32:48.139Z,6.82
2022-09-20T13:33:50.889Z,6.93
2022-09-20T13:35:18.278Z,6.95
2022-09-20T13:36:30.092Z,9.95
2022-09-20T13:37:33.188Z,10.18
2022-09-20T13:38:37.197Z,5.68
2022-09-20T13:39:39.452Z,6.75
2022-09-20T13:40:49.819Z,10.32
2022-09-20T13:41:52.759Z,10.38
2022-09-20T13:43:22.224Z,7.25
2022-09-20T13:44:24.438Z,6.32
2022-09-20T13:45:29.739Z,5.60
2022-09-20T13:46:44.186Z,7.38
2022-09-20T13:47:51.621Z,13.27
2022-09-20T13:49:20.669Z,5.25
2022-09-20T13:50:32.885Z,4.65
2022-09-20T13:51:35.539Z,5.80
2022-09-20T13:52:55.211Z,4.45
2022-09-20T13:54:27.900Z,4.97
2022-09-20T13:55:34.280Z,2.45
2022-09-20T13:56:38.256Z,5.18
2022-09-20T13:57:41.187Z,3.80
2022-09-20T13:58:43.668Z,4.90
2022-09-20T13:59:46.693Z,7.03
2022-09-20T14:00:52.528Z,4.85
2022-09-20T14:01:55.368Z,5.22
2022-09-20T14:02:58.451Z,5.70
2022-09-20T14:04:09.013Z,6.13
2022-09-20T14:05:17.989Z,5.22
2022-09-20T14:06:27.025Z,5.68
2022-09-20T14:07:29.696Z,4.95
2022-09-20T14:08:42.471Z,3.42
2022-09-20T14:09:46.175Z,4.43
2022-09-20T14:11:01.005Z,5.30
2022-09-20T14:12:05.957Z,5.68
2022-09-20T14:13:15.487Z,6.03
2022-09-20T14:14:22.222Z,3.55
2022-09-20T14:15:35.918Z,5.45
2022-09-20T14:16:41.215Z,5.28
2022-09-20T14:17:44.195Z,3.05
2022-09-20T14:18:47.964Z,3.33
2022-09-20T14:19:54.443Z,5.78
2022-09-20T14:20:58.135Z,6.05
2022-09-20T14:22:05.204Z,3.45
2022-09-20T14:23:21.945Z,6.80
2022-09-20T14:24:28.769Z,5.95
2022-09-20T14:25:34.469Z,5.90
2022-09-20T14:26:38.640Z,4.03
2022-09-20T14:27:44.682Z,6.18
2022-09-20T14:28:50.341Z,4.97
2022-09-20T14:29:53.730Z,3.97
2022-09-20T14:31:12.782Z,3.75
2022-09-20T14:32:17.988Z,4.93
2022-09-20T14:33:21.258Z,4.22
2022-09-20T14:34:23.829Z,3.50
2022-09-20T14:35:27.124Z,6.35
2022-09-20T14:36:31.142Z,6.95
2022-09-20T14:37:53.079Z,4.25
2022-09-20T14:38:58.815Z,4.70
2022-09-20T14:40:04.722Z,5.38
2022-09-20T14:41:07.189Z,4.45
2022-09-20T14:42:27.680Z,4.72
2022-09-20T14:43:36.006Z,4.70
2022-09-20T14:44:38.448Z,3.10
2022-09-20T14:45:43.097Z,5.20
2022-09-20T14:46:45.835Z,4.97
2022-09-20T14:47:57.498Z,5.15
2022-09-20T14:49:21.567Z,5.18
2022-09-20T14:50:36.144Z,6.57
2022-09-20T14:51:38.978Z,7.63
2022-09-20T14:52:43.746Z,9.00
2022-09-20T14:54:13.201Z,4.78
2022-09-20T14:55:16.257Z,5.65
2022-09-20T14:56:37.604Z,6.70
2022-09-20T14:57:42.169Z,4.70
2022-09-20T14:59:07.106Z,5.78
2022-09-20T15:00:15.018Z,7.43
2022-09-20T15:01:24.326Z,6.70
2022-09-20T15:02:27.362Z,7.18
2022-09-20T15:03:41.830Z,5.85
2022-09-20T15:04:57.273Z,7.68
2022-09-20T15:06:00.211Z,5.22
2022-09-20T15:07:06.225Z,4.70
2022-09-20T15:08:12.776Z,3.63
2022-09-20T15:09:15.664Z,3.28
2022-09-20T15:10:17.888Z,5.93
2022-09-20T15:11:20.520Z,7.28
2022-09-20T15:12:22.848Z,5.25
2022-09-20T15:13:25.168Z,4.57
2022-09-20T15:14:27.495Z,7.75
2022-09-20T15:15:32.392Z,4.88
2022-09-20T15:16:34.804Z,6.18
2022-09-20T15:17:37.112Z,7.97
2022-09-20T15:18:41.952Z,4.85
2022-09-20T15:19:45.273Z,7.25
2022-09-20T15:20:49.368Z,4.80
2022-09-20T15:21:51.706Z,7.60
2022-09-20T15:22:54.034Z,8.88
2022-09-20T15:23:56.218Z,6.38
2022-09-20T15:24:58.430Z,4.85
2022-09-20T15:26:00.853Z,6.65
2022-09-20T15:27:03.095Z,5.00
2022-09-20T15:28:07.483Z,4.20
2022-09-20T15:29:17.159Z,5.35
2022-09-20T15:30:23.001Z,7.28
2022-09-20T15:31:25.352Z,6.30
2022-09-20T15:32:27.597Z,6.28
2022-09-20T15:33:34.161Z,4.63
2022-09-20T15:34:36.327Z,5.05
2022-09-20T15:35:39.690Z,3.60
2022-09-20T15:36:42.297Z,5.97
2022-09-20T15:37:44.631Z,6.07
2022-09-20T15:38:47.104Z,7.40
2022-09-20T15:39:49.592Z,5.82
2022-09-20T15:40:51.996Z,4.78
2022-09-20T15:41:54.237Z,6.55
2022-09-20T15:42:58.088Z,4.25
2022-09-20T15:44:01.529Z,6.93
2022-09-20T15:45:08.944Z,5.15
2022-09-20T15:46:22.507Z,6.78
2022-09-20T15:47:24.956Z,8.85
2022-09-20T15:48:30.064Z,4.65
2022-09-20T15:49:33.195Z,5.88
2022-09-20T15:50:35.374Z,5.93
2022-09-20T15:51:38.957Z,6.75
2022-09-20T15:52:41.502Z,3.60
2022-09-20T15:54:06.210Z,5.88
2022-09-20T15:55:09.337Z,4.80
2022-09-20T15:56:21.104Z,4.10
2022-09-20T15:57:23.294Z,4.45
2022-09-20T15:58:25.835Z,14.30
2022-09-20T15:59:29.222Z,5.57
2022-09-20T16:00:31.359Z,8.57
2022-09-20T16:01:41.813Z,7.75
2022-09-20T16:02:48.736Z,4.47
2022-09-20T16:03:51.145Z,5.78
2022-09-20T16:04:57.650Z,7.07
2022-09-20T16:06:04.412Z,6.50
2022-09-20T16:07:07.328Z,9.15
2022-09-20T16:08:09.490Z,6.20
2022-09-20T16:09:11.873Z,7.25
2022-09-20T16:10:15.397Z,5.15
2022-09-20T16:11:23.319Z,5.00
2022-09-20T16:12:25.758Z,5.57